sensor_id;sensor_type;location;lat;lon;timestamp;pressure;altitude;pressure_sealevel;temperature;humidity
30682;BME280;17439;48.092;11.842;2023-09-30T00:01:09;96167.84;;;20.15;51.75
30682;BME280;17439;48.092;11.842;2023-09-30T00:03:36;96165.44;;;20.13;51.51
30682;BME280;17439;48.092;11.842;2023-09-30T00:06:03;96166.84;;;20.07;51.61
30682;BME280;17439;48.092;11.842;2023-09-30T00:08:30;96173.50;;;20.06;51.66
30682;BME280;17439;48.092;11.842;2023-09-30T00:10:57;96184.00;;;20.00;52.11
30682;BME280;17439;48.092;11.842;2023-09-30T00:13:23;96173.25;;;19.95;52.46
30682;BME280;17439;48.092;11.842;2023-09-30T00:15:50;96182.66;;;19.94;52.64
30682;BME280;17439;48.092;11.842;2023-09-30T00:18:17;96182.56;;;19.90;52.59
30682;BME280;17439;48.092;11.842;2023-09-30T00:20:44;96178.22;;;19.89;52.99
30682;BME280;17439;48.092;11.842;2023-09-30T00:23:10;96182.56;;;19.90;52.88
30682;BME280;17439;48.092;11.842;2023-09-30T00:25:37;96187.25;;;19.90;52.92
30682;BME280;17439;48.092;11.842;2023-09-30T00:28:04;96197.91;;;19.91;52.71
30682;BME280;17439;48.092;11.842;2023-09-30T00:30:31;96203.88;;;19.93;53.21
30682;BME280;17439;48.092;11.842;2023-09-30T00:32:59;96208.91;;;19.91;53.40
30682;BME280;17439;48.092;11.842;2023-09-30T00:35:25;96208.91;;;19.91;53.33
30682;BME280;17439;48.092;11.842;2023-09-30T00:37:52;96215.31;;;19.96;53.36
30682;BME280;17439;48.092;11.842;2023-09-30T00:40:19;96216.94;;;19.97;52.88
30682;BME280;17439;48.092;11.842;2023-09-30T00:42:45;96214.63;;;19.99;53.03
30682;BME280;17439;48.092;11.842;2023-09-30T00:45:12;96220.91;;;19.99;53.41
30682;BME280;17439;48.092;11.842;2023-09-30T00:47:40;96213.13;;;20.01;52.90
30682;BME280;17439;48.092;11.842;2023-09-30T00:50:08;96218.72;;;20.05;53.25
30682;BME280;17439;48.092;11.842;2023-09-30T00:52:36;96225.44;;;20.07;52.80
30682;BME280;17439;48.092;11.842;2023-09-30T00:55:03;96207.00;;;20.08;52.92
30682;BME280;17439;48.092;11.842;2023-09-30T00:57:30;96210.19;;;20.10;52.75
30682;BME280;17439;48.092;11.842;2023-09-30T00:59:57;96204.69;;;20.10;53.14
30682;BME280;17439;48.092;11.842;2023-09-30T01:02:24;96205.94;;;20.13;52.87
30682;BME280;17439;48.092;11.842;2023-09-30T01:04:51;96203.97;;;20.13;52.86
30682;BME280;17439;48.092;11.842;2023-09-30T01:07:18;96200.06;;;20.14;52.86
30682;BME280;17439;48.092;11.842;2023-09-30T01:09:45;96207.16;;;20.15;52.81
30682;BME280;17439;48.092;11.842;2023-09-30T01:12:11;96211.53;;;20.16;52.63
30682;BME280;17439;48.092;11.842;2023-09-30T01:14:38;96207.28;;;20.19;52.67
30682;BME280;17439;48.092;11.842;2023-09-30T01:17:05;96205.75;;;20.21;53.01
30682;BME280;17439;48.092;11.842;2023-09-30T01:19:31;96211.25;;;20.21;53.01
30682;BME280;17439;48.092;11.842;2023-09-30T01:21:58;96203.00;;;20.21;52.92
30682;BME280;17439;48.092;11.842;2023-09-30T01:24:28;96208.94;;;20.23;53.15
30682;BME280;17439;48.092;11.842;2023-09-30T01:26:56;96206.19;;;20.23;52.56
30682;BME280;17439;48.092;11.842;2023-09-30T01:29:24;96208.56;;;20.25;52.81
30682;BME280;17439;48.092;11.842;2023-09-30T01:31:51;96205.03;;;20.24;53.13
30682;BME280;17439;48.092;11.842;2023-09-30T01:34:18;96214.44;;;20.23;52.90
30682;BME280;17439;48.092;11.842;2023-09-30T01:36:44;96212.84;;;20.22;52.98
30682;BME280;17439;48.092;11.842;2023-09-30T01:39:11;96216.41;;;20.23;53.04
30682;BME280;17439;48.092;11.842;2023-09-30T01:41:41;96217.19;;;20.23;52.87
30682;BME280;17439;48.092;11.842;2023-09-30T01:44:08;96212.84;;;20.22;52.96
30682;BME280;17439;48.092;11.842;2023-09-30T01:46:36;96203.44;;;20.23;53.11
30682;BME280;17439;48.092;11.842;2023-09-30T01:49:02;96199.53;;;20.24;53.19
30682;BME280;17439;48.092;11.842;2023-09-30T01:51:29;96198.75;;;20.24;52.72
30682;BME280;17439;48.092;11.842;2023-09-30T01:53:57;96197.91;;;20.23;53.03
30682;BME280;17439;48.092;11.842;2023-09-30T01:56:25;96205.03;;;20.24;52.66
30682;BME280;17439;48.092;11.842;2023-09-30T01:58:52;96211.69;;;20.23;52.79
30682;BME280;17439;48.092;11.842;2023-09-30T02:01:20;96204.25;;;20.24;52.68
30682;BME280;17439;48.092;11.842;2023-09-30T02:03:47;96215.25;;;20.24;53.02
30682;BME280;17439;48.092;11.842;2023-09-30T02:06:14;96214.44;;;20.23;52.83
30682;BME280;17439;48.092;11.842;2023-09-30T02:08:41;96200.25;;;20.21;52.92
30682;BME280;17439;48.092;11.842;2023-09-30T02:11:08;96210.03;;;20.19;53.25
30682;BME280;17439;48.092;11.842;2023-09-30T02:13:35;96209.56;;;20.17;53.20
30682;BME280;17439;48.092;11.842;2023-09-30T02:16:01;96207.97;;;20.16;53.32
30682;BME280;17439;48.092;11.842;2023-09-30T02:18:28;96210.72;;;20.16;53.32
30682;BME280;17439;48.092;11.842;2023-09-30T02:20:55;96207.16;;;20.15;53.60
30682;BME280;17439;48.092;11.842;2023-09-30T02:23:22;96215.41;;;20.15;53.45
30682;BME280;17439;48.092;11.842;2023-09-30T02:25:49;96200.06;;;20.14;53.25
30682;BME280;17439;48.092;11.842;2023-09-30T02:28:15;96198.47;;;20.13;53.61
30682;BME280;17439;48.092;11.842;2023-09-30T02:30:42;96199.97;;;20.10;53.77
30682;BME280;17439;48.092;11.842;2023-09-30T02:33:09;96198.38;;;20.09;53.65
30682;BME280;17439;48.092;11.842;2023-09-30T02:35:35;96204.25;;;20.08;53.44
30682;BME280;17439;48.092;11.842;2023-09-30T02:38:02;96206.19;;;20.07;53.61
30682;BME280;17439;48.092;11.842;2023-09-30T02:40:29;96209.28;;;20.06;53.35
30682;BME280;17439;48.092;11.842;2023-09-30T02:42:56;96208.41;;;20.02;53.58
30682;BME280;17439;48.092;11.842;2023-09-30T02:45:23;96209.53;;;20.01;54.01
30682;BME280;17439;48.092;11.842;2023-09-30T02:47:50;96206.78;;;20.01;53.75
30682;BME280;17439;48.092;11.842;2023-09-30T02:50:17;96206.00;;;20.00;53.95
30682;BME280;17439;48.092;11.842;2023-09-30T02:52:43;96200.50;;;20.00;53.72
30682;BME280;17439;48.092;11.842;2023-09-30T02:55:11;96205.22;;;20.00;53.71
30682;BME280;17439;48.092;11.842;2023-09-30T02:57:38;96198.09;;;19.99;53.85
30682;BME280;17439;48.092;11.842;2023-09-30T03:00:06;96197.19;;;19.94;54.02
30682;BME280;17439;48.092;11.842;2023-09-30T03:02:34;96198.38;;;19.93;53.92
30682;BME280;17439;48.092;11.842;2023-09-30T03:05:01;96204.22;;;19.92;54.01
30682;BME280;17439;48.092;11.842;2023-09-30T03:07:29;96208.13;;;19.91;54.41
30682;BME280;17439;48.092;11.842;2023-09-30T03:09:56;96195.84;;;19.88;54.03
30682;BME280;17439;48.092;11.842;2023-09-30T03:12:23;96197.72;;;19.84;54.11
30682;BME280;17439;48.092;11.842;2023-09-30T03:14:50;96199.34;;;19.85;54.07
30682;BME280;17439;48.092;11.842;2023-09-30T03:17:17;96200.47;;;19.84;53.96
30682;BME280;17439;48.092;11.842;2023-09-30T03:19:43;96200.84;;;19.83;54.12
30682;BME280;17439;48.092;11.842;2023-09-30T03:22:10;96203.94;;;19.81;54.30
30682;BME280;17439;48.092;11.842;2023-09-30T03:24:38;96207.03;;;19.80;54.57
30682;BME280;17439;48.092;11.842;2023-09-30T03:27:05;96209.00;;;19.79;54.35
30682;BME280;17439;48.092;11.842;2023-09-30T03:29:32;96206.25;;;19.79;54.32
30682;BME280;17439;48.092;11.842;2023-09-30T03:31:58;96205.44;;;19.79;54.42
30682;BME280;17439;48.092;11.842;2023-09-30T03:34:25;96203.03;;;19.77;54.23
30682;BME280;17439;48.092;11.842;2023-09-30T03:36:52;96209.69;;;19.76;54.48
30682;BME280;17439;48.092;11.842;2023-09-30T03:39:19;96210.81;;;19.75;54.22
30682;BME280;17439;48.092;11.842;2023-09-30T03:41:45;96210.03;;;19.74;54.59
30682;BME280;17439;48.092;11.842;2023-09-30T03:44:12;96203.69;;;19.74;54.28
30682;BME280;17439;48.092;11.842;2023-09-30T03:46:39;96212.44;;;19.76;54.30
30682;BME280;17439;48.092;11.842;2023-09-30T03:49:06;96217.47;;;19.74;54.46
30682;BME280;17439;48.092;11.842;2023-09-30T03:51:32;96215.88;;;19.73;54.71
30682;BME280;17439;48.092;11.842;2023-09-30T03:53:59;96222.50;;;19.72;54.67
30682;BME280;17439;48.092;11.842;2023-09-30T03:56:26;96218.16;;;19.71;54.63
30682;BME280;17439;48.092;11.842;2023-09-30T03:58:52;96214.19;;;19.68;54.41
30682;BME280;17439;48.092;11.842;2023-09-30T04:01:19;96215.31;;;19.67;54.39
30682;BME280;17439;48.092;11.842;2023-09-30T04:03:46;96207.41;;;19.66;54.67
30682;BME280;17439;48.092;11.842;2023-09-30T04:06:13;96204.56;;;19.62;55.04
30682;BME280;17439;48.092;11.842;2023-09-30T04:08:40;96213.63;;;19.63;54.81
30682;BME280;17439;48.092;11.842;2023-09-30T04:11:07;96211.22;;;19.61;54.73
30682;BME280;17439;48.092;11.842;2023-09-30T04:13:34;96224.19;;;19.61;54.81
30682;BME280;17439;48.092;11.842;2023-09-30T04:16:00;96214.31;;;19.60;54.94
30682;BME280;17439;48.092;11.842;2023-09-30T04:18:27;96224.53;;;19.59;54.87
30682;BME280;17439;48.092;11.842;2023-09-30T04:20:54;96221.00;;;19.58;54.78
30682;BME280;17439;48.092;11.842;2023-09-30T04:23:21;96223.25;;;19.56;54.58
30682;BME280;17439;48.092;11.842;2023-09-30T04:25:48;96212.16;;;19.53;54.81
30682;BME280;17439;48.092;11.842;2023-09-30T04:28:15;96214.47;;;19.51;54.86
30682;BME280;17439;48.092;11.842;2023-09-30T04:30:41;96214.03;;;19.49;54.96
30682;BME280;17439;48.092;11.842;2023-09-30T04:33:08;96219.41;;;19.45;55.16
30682;BME280;17439;48.092;11.842;2023-09-30T04:35:35;96216.22;;;19.43;54.95
30682;BME280;17439;48.092;11.842;2023-09-30T04:38:02;96220.94;;;19.43;54.94
30682;BME280;17439;48.092;11.842;2023-09-30T04:40:29;96220.13;;;19.42;55.09
30682;BME280;17439;48.092;11.842;2023-09-30T04:42:55;96214.97;;;19.40;55.17
30682;BME280;17439;48.092;11.842;2023-09-30T04:45:22;96217.72;;;19.40;55.16
30682;BME280;17439;48.092;11.842;2023-09-30T04:47:49;96225.16;;;19.40;54.85
30682;BME280;17439;48.092;11.842;2023-09-30T04:50:16;96229.88;;;19.39;55.01
30682;BME280;17439;48.092;11.842;2023-09-30T04:52:43;96229.06;;;19.39;55.09
30682;BME280;17439;48.092;11.842;2023-09-30T04:55:10;96238.81;;;19.36;55.37
30682;BME280;17439;48.092;11.842;2023-09-30T04:57:37;96252.91;;;19.35;55.07
30682;BME280;17439;48.092;11.842;2023-09-30T05:00:04;96252.47;;;19.33;55.09
30682;BME280;17439;48.092;11.842;2023-09-30T05:02:30;96250.41;;;19.30;55.45
30682;BME280;17439;48.092;11.842;2023-09-30T05:04:57;96253.50;;;19.28;55.16
30682;BME280;17439;48.092;11.842;2023-09-30T05:07:24;96251.91;;;19.27;54.90
30682;BME280;17439;48.092;11.842;2023-09-30T05:09:51;96240.81;;;19.24;55.22
30682;BME280;17439;48.092;11.842;2023-09-30T05:12:17;96248.56;;;19.21;54.85
30682;BME280;17439;48.092;11.842;2023-09-30T05:14:44;96248.13;;;19.19;54.90
30682;BME280;17439;48.092;11.842;2023-09-30T05:17:12;96248.03;;;19.16;55.37
30682;BME280;17439;48.092;11.842;2023-09-30T05:19:39;96250.69;;;19.12;55.36
30682;BME280;17439;48.092;11.842;2023-09-30T05:22:05;96243.94;;;19.10;55.39
30682;BME280;17439;48.092;11.842;2023-09-30T05:24:32;96248.16;;;19.07;55.11
30682;BME280;17439;48.092;11.842;2023-09-30T05:26:59;96249.66;;;19.05;55.42
30682;BME280;17439;48.092;11.842;2023-09-30T05:29:26;96254.34;;;19.04;55.67
30682;BME280;17439;48.092;11.842;2023-09-30T05:31:52;96257.44;;;19.02;55.87
30682;BME280;17439;48.092;11.842;2023-09-30T05:34:19;96263.75;;;19.03;56.19
30682;BME280;17439;48.092;11.842;2023-09-30T05:36:46;96259.84;;;19.04;56.19
30682;BME280;17439;48.092;11.842;2023-09-30T05:39:13;96261.44;;;19.05;56.29
30682;BME280;17439;48.092;11.842;2023-09-30T05:41:39;96259.97;;;19.08;56.30
30682;BME280;17439;48.092;11.842;2023-09-30T05:44:06;96266.69;;;19.10;56.34
30682;BME280;17439;48.092;11.842;2023-09-30T05:46:33;96272.66;;;19.12;56.43
30682;BME280;17439;48.092;11.842;2023-09-30T05:48:59;96264.09;;;19.14;56.57
30682;BME280;17439;48.092;11.842;2023-09-30T05:51:26;96269.22;;;19.15;56.49
30682;BME280;17439;48.092;11.842;2023-09-30T05:53:53;96271.63;;;19.17;56.58
30682;BME280;17439;48.092;11.842;2023-09-30T05:56:20;96266.94;;;19.17;56.53
30682;BME280;17439;48.092;11.842;2023-09-30T05:58:47;96276.78;;;19.18;56.40
30682;BME280;17439;48.092;11.842;2023-09-30T06:01:13;96279.53;;;19.18;56.84
30682;BME280;17439;48.092;11.842;2023-09-30T06:03:40;96275.63;;;19.19;57.03
30682;BME280;17439;48.092;11.842;2023-09-30T06:06:11;96274.13;;;19.22;57.43
30682;BME280;17439;48.092;11.842;2023-09-30T06:08:38;96275.38;;;19.25;56.66
30682;BME280;17439;48.092;11.842;2023-09-30T06:11:05;96280.19;;;19.28;56.69
30682;BME280;17439;48.092;11.842;2023-09-30T06:13:32;96281.44;;;19.30;56.55
30682;BME280;17439;48.092;11.842;2023-09-30T06:15:59;96277.22;;;19.33;56.66
30682;BME280;17439;48.092;11.842;2023-09-30T06:18:26;96288.31;;;19.36;56.59
30682;BME280;17439;48.092;11.842;2023-09-30T06:20:53;96290.00;;;19.41;56.62
30682;BME280;17439;48.092;11.842;2023-09-30T06:23:20;96288.41;;;19.40;56.62
30682;BME280;17439;48.092;11.842;2023-09-30T06:25:46;96290.00;;;19.41;56.76
30682;BME280;17439;48.092;11.842;2023-09-30T06:28:13;96286.91;;;19.43;56.31
30682;BME280;17439;48.092;11.842;2023-09-30T06:30:40;96286.91;;;19.43;56.51
30682;BME280;17439;48.092;11.842;2023-09-30T06:33:07;96293.22;;;19.43;56.45
30682;BME280;17439;48.092;11.842;2023-09-30T06:35:34;96290.13;;;19.45;56.25
30682;BME280;17439;48.092;11.842;2023-09-30T06:38:01;96299.16;;;19.45;56.51
30682;BME280;17439;48.092;11.842;2023-09-30T06:40:27;96296.88;;;19.47;56.41
30682;BME280;17439;48.092;11.842;2023-09-30T06:42:54;96311.84;;;19.50;56.63
30682;BME280;17439;48.092;11.842;2023-09-30T06:45:21;96322.50;;;19.51;56.47
30682;BME280;17439;48.092;11.842;2023-09-30T06:47:47;96325.25;;;19.51;56.50
30682;BME280;17439;48.092;11.842;2023-09-30T06:50:14;96326.19;;;19.55;56.33
30682;BME280;17439;48.092;11.842;2023-09-30T06:52:42;96324.22;;;19.56;56.29
30682;BME280;17439;48.092;11.842;2023-09-30T06:55:09;96325.84;;;19.57;56.89
30682;BME280;17439;48.092;11.842;2023-09-30T06:57:37;96324.31;;;19.60;56.75
30682;BME280;17439;48.092;11.842;2023-09-30T07:00:08;96338.53;;;19.62;56.85
30682;BME280;17439;48.092;11.842;2023-09-30T07:02:36;96339.44;;;19.66;56.92
30682;BME280;17439;48.092;11.842;2023-09-30T07:05:12;96326.50;;;19.66;56.85
30682;BME280;17439;48.092;11.842;2023-09-30T07:07:40;96330.56;;;19.72;56.42
30682;BME280;17439;48.092;11.842;2023-09-30T07:10:08;96329.09;;;19.75;56.55
30682;BME280;17439;48.092;11.842;2023-09-30T07:12:35;96331.97;;;19.79;56.41
30682;BME280;17439;48.092;11.842;2023-09-30T07:15:03;96334.94;;;19.73;56.72
30682;BME280;17439;48.092;11.842;2023-09-30T07:17:30;96339.75;;;19.89;56.36
30682;BME280;17439;48.092;11.842;2023-09-30T07:19:57;96343.03;;;19.94;55.95
30682;BME280;17439;48.092;11.842;2023-09-30T07:22:23;96338.78;;;19.97;56.01
30682;BME280;17439;48.092;11.842;2023-09-30T07:25:05;96341.97;;;19.99;56.13
30682;BME280;17439;48.092;11.842;2023-09-30T07:27:32;96344.38;;;20.01;55.81
30682;BME280;17439;48.092;11.842;2023-09-30T07:29:59;96353.13;;;20.03;55.82
30682;BME280;17439;48.092;11.842;2023-09-30T07:32:26;96344.47;;;20.04;55.96
30682;BME280;17439;48.092;11.842;2023-09-30T07:34:54;96352.38;;;20.06;55.92
30682;BME280;17439;48.092;11.842;2023-09-30T07:37:21;96348.94;;;20.09;56.03
30682;BME280;17439;48.092;11.842;2023-09-30T07:39:48;96349.41;;;20.11;55.57
30682;BME280;17439;48.092;11.842;2023-09-30T07:42:14;96346.38;;;20.16;55.48
30682;BME280;17439;48.092;11.842;2023-09-30T07:44:41;96354.66;;;20.16;55.64
30682;BME280;17439;48.092;11.842;2023-09-30T07:47:08;96364.97;;;20.19;55.47
30682;BME280;17439;48.092;11.842;2023-09-30T07:49:35;96369.41;;;20.24;55.54
30682;BME280;17439;48.092;11.842;2023-09-30T07:52:02;96358.41;;;20.24;55.52
30682;BME280;17439;48.092;11.842;2023-09-30T07:54:28;96371.91;;;20.29;55.30
30682;BME280;17439;48.092;11.842;2023-09-30T07:56:58;96365.69;;;20.32;55.07
30682;BME280;17439;48.092;11.842;2023-09-30T07:59:25;96374.06;;;20.36;55.12
30682;BME280;17439;48.092;11.842;2023-09-30T08:01:52;96373.69;;;20.37;54.87
30682;BME280;17439;48.092;11.842;2023-09-30T08:04:19;96375.41;;;20.42;54.85
30682;BME280;17439;48.092;11.842;2023-09-30T08:06:46;96377.00;;;20.43;54.59
30682;BME280;17439;48.092;11.842;2023-09-30T08:09:14;96373.09;;;20.44;53.88
30682;BME280;17439;48.092;11.842;2023-09-30T08:11:41;96385.53;;;20.38;54.42
30682;BME280;17439;48.092;11.842;2023-09-30T08:14:08;96385.16;;;20.39;54.63
30682;BME280;17439;48.092;11.842;2023-09-30T08:16:37;96389.88;;;20.39;54.36
30682;BME280;17439;48.092;11.842;2023-09-30T08:19:04;96385.53;;;20.38;54.61
30682;BME280;17439;48.092;11.842;2023-09-30T08:21:31;96388.28;;;20.38;54.61
30682;BME280;17439;48.092;11.842;2023-09-30T08:23:59;96383.13;;;20.36;54.64
30682;BME280;17439;48.092;11.842;2023-09-30T08:26:25;96380.81;;;20.38;54.49
30682;BME280;17439;48.092;11.842;2023-09-30T08:28:52;96380.91;;;20.42;54.73
30682;BME280;17439;48.092;11.842;2023-09-30T08:31:19;96365.28;;;20.46;55.08
30682;BME280;17439;48.092;11.842;2023-09-30T08:33:46;96370.88;;;20.50;54.51
30682;BME280;17439;48.092;11.842;2023-09-30T08:36:13;96373.38;;;20.55;55.10
30682;BME280;17439;48.092;11.842;2023-09-30T08:38:41;96395.16;;;20.60;54.48
30682;BME280;17439;48.092;11.842;2023-09-30T08:41:08;96411.13;;;20.67;54.46
30682;BME280;17439;48.092;11.842;2023-09-30T08:43:39;96395.03;;;20.69;53.65
30682;BME280;17439;48.092;11.842;2023-09-30T08:46:06;96369.97;;;20.74;53.76
30682;BME280;17439;48.092;11.842;2023-09-30T08:48:34;96386.13;;;20.75;53.03
30682;BME280;17439;48.092;11.842;2023-09-30T08:51:02;96395.53;;;20.74;53.45
30682;BME280;17439;48.092;11.842;2023-09-30T08:53:29;96399.56;;;20.77;53.12
30682;BME280;17439;48.092;11.842;2023-09-30T08:55:57;96397.59;;;20.77;53.22
30682;BME280;17439;48.092;11.842;2023-09-30T08:58:26;96395.75;;;20.81;53.54
30682;BME280;17439;48.092;11.842;2023-09-30T09:00:53;96395.56;;;20.90;53.30
30682;BME280;17439;48.092;11.842;2023-09-30T09:03:20;96399.56;;;20.93;53.27
30682;BME280;17439;48.092;11.842;2023-09-30T09:05:54;96396.47;;;20.94;52.44
30682;BME280;17439;48.092;11.842;2023-09-30T09:08:25;96395.19;;;21.08;52.18
30682;BME280;17439;48.092;11.842;2023-09-30T09:10:57;96401.09;;;21.06;52.57
30682;BME280;17439;48.092;11.842;2023-09-30T09:13:25;96401.97;;;21.10;52.37
30682;BME280;17439;48.092;11.842;2023-09-30T09:16:07;96397.25;;;21.11;52.68
30682;BME280;17439;48.092;11.842;2023-09-30T09:18:35;96391.13;;;21.17;52.39
30682;BME280;17439;48.092;11.842;2023-09-30T09:21:13;96393.06;;;21.17;52.31
30682;BME280;17439;48.092;11.842;2023-09-30T09:23:44;96390.94;;;21.26;52.22
30682;BME280;17439;48.092;11.842;2023-09-30T09:26:31;96385.78;;;21.25;51.12
30682;BME280;17439;48.092;11.842;2023-09-30T09:29:00;96380.09;;;21.33;52.18
30682;BME280;17439;48.092;11.842;2023-09-30T09:31:32;96369.38;;;21.48;50.70
30682;BME280;17439;48.092;11.842;2023-09-30T09:33:59;96375.00;;;21.51;51.11
30682;BME280;17439;48.092;11.842;2023-09-30T09:36:42;96374.34;;;21.58;50.70
30682;BME280;17439;48.092;11.842;2023-09-30T09:39:10;96393.22;;;21.56;51.30
30682;BME280;17439;48.092;11.842;2023-09-30T09:41:53;96389.03;;;21.62;51.04
30682;BME280;17439;48.092;11.842;2023-09-30T09:44:21;96389.13;;;21.66;50.84
30682;BME280;17439;48.092;11.842;2023-09-30T09:46:48;96384.19;;;21.75;50.11
30682;BME280;17439;48.092;11.842;2023-09-30T09:49:17;96389.06;;;21.82;49.55
30682;BME280;17439;48.092;11.842;2023-09-30T09:51:45;96379.78;;;21.90;49.11
30682;BME280;17439;48.092;11.842;2023-09-30T09:54:12;96381.31;;;21.87;49.02
30682;BME280;17439;48.092;11.842;2023-09-30T09:56:39;96362.34;;;21.86;49.09
30682;BME280;17439;48.092;11.842;2023-09-30T09:59:06;96373.41;;;21.86;49.42
30682;BME280;17439;48.092;11.842;2023-09-30T10:01:33;96361.53;;;21.85;49.15
30682;BME280;17439;48.092;11.842;2023-09-30T10:04:01;96366.69;;;21.87;49.29
30682;BME280;17439;48.092;11.842;2023-09-30T10:06:28;96365.97;;;21.90;49.53
30682;BME280;17439;48.092;11.842;2023-09-30T10:08:55;96362.84;;;21.91;49.66
30682;BME280;17439;48.092;11.842;2023-09-30T10:11:23;96369.25;;;21.96;49.73
30682;BME280;17439;48.092;11.842;2023-09-30T10:13:57;96351.31;;;22.05;48.50
30682;BME280;17439;48.092;11.842;2023-09-30T10:19:13;96351.75;;;22.07;48.35
30682;BME280;17439;48.092;11.842;2023-09-30T10:24:44;96339.19;;;22.10;48.73
30682;BME280;17439;48.092;11.842;2023-09-30T10:35:18;96363.06;;;22.22;48.83
30682;BME280;17439;48.092;11.842;2023-09-30T10:37:46;96352.16;;;22.29;48.66
30682;BME280;17439;48.092;11.842;2023-09-30T10:40:29;96331.31;;;22.32;48.11
30682;BME280;17439;48.092;11.842;2023-09-30T10:42:56;96323.53;;;22.37;47.67
30682;BME280;17439;48.092;11.842;2023-09-30T10:50:58;96340.38;;;22.52;46.02
30682;BME280;17439;48.092;11.842;2023-09-30T10:53:25;96339.88;;;22.46;45.96
30682;BME280;17439;48.092;11.842;2023-09-30T10:55:59;96345.75;;;22.44;45.26
30682;BME280;17439;48.092;11.842;2023-09-30T10:58:45;96344.97;;;22.44;45.87
30682;BME280;17439;48.092;11.842;2023-09-30T11:01:13;96337.63;;;22.52;45.30
30682;BME280;17439;48.092;11.842;2023-09-30T11:03:41;96346.25;;;22.50;44.98
30682;BME280;17439;48.092;11.842;2023-09-30T11:06:12;96344.38;;;22.54;45.45
30682;BME280;17439;48.092;11.842;2023-09-30T11:08:45;96343.28;;;22.59;45.62
30682;BME280;17439;48.092;11.842;2023-09-30T11:11:13;96342.97;;;22.64;44.89
30682;BME280;17439;48.092;11.842;2023-09-30T11:13:40;96328.09;;;22.72;44.41
30682;BME280;17439;48.092;11.842;2023-09-30T11:16:07;96330.19;;;22.79;44.06
30682;BME280;17439;48.092;11.842;2023-09-30T11:18:34;96321.53;;;22.80;44.69
30682;BME280;17439;48.092;11.842;2023-09-30T11:21:06;96324.84;;;22.90;44.65
30682;BME280;17439;48.092;11.842;2023-09-30T11:23:33;96316.66;;;22.97;44.08
30682;BME280;17439;48.092;11.842;2023-09-30T11:26:00;96317.00;;;22.95;43.96
30682;BME280;17439;48.092;11.842;2023-09-30T11:28:39;96320.28;;;23.01;44.30
30682;BME280;17439;48.092;11.842;2023-09-30T11:31:08;96324.00;;;23.09;42.86
30682;BME280;17439;48.092;11.842;2023-09-30T11:33:47;96314.09;;;23.08;43.00
30682;BME280;17439;48.092;11.842;2023-09-30T11:36:14;96317.19;;;23.06;42.89
30682;BME280;17439;48.092;11.842;2023-09-30T11:38:45;96320.69;;;23.03;43.41
30682;BME280;17439;48.092;11.842;2023-09-30T11:41:12;96321.22;;;23.09;43.61
30682;BME280;17439;48.092;11.842;2023-09-30T11:43:39;96319.38;;;23.16;42.79
30682;BME280;17439;48.092;11.842;2023-09-30T11:46:08;96313.41;;;23.14;42.82
30682;BME280;17439;48.092;11.842;2023-09-30T11:48:36;96316.03;;;23.07;43.44
30682;BME280;17439;48.092;11.842;2023-09-30T11:51:03;96322.72;;;23.06;43.75
30682;BME280;17439;48.092;11.842;2023-09-30T11:53:30;96325.84;;;23.05;43.59
30682;BME280;17439;48.092;11.842;2023-09-30T11:55:58;96323.38;;;22.96;42.99
30682;BME280;17439;48.092;11.842;2023-09-30T11:58:26;96319.63;;;23.08;43.19
30682;BME280;17439;48.092;11.842;2023-09-30T12:00:54;96316.16;;;23.14;42.86
30682;BME280;17439;48.092;11.842;2023-09-30T12:03:20;96320.94;;;23.17;42.60
30682;BME280;17439;48.092;11.842;2023-09-30T12:05:48;96322.13;;;23.16;42.98
30682;BME280;17439;48.092;11.842;2023-09-30T12:08:14;96314.31;;;23.22;42.08
30682;BME280;17439;48.092;11.842;2023-09-30T12:10:41;96318.31;;;23.25;42.15
30682;BME280;17439;48.092;11.842;2023-09-30T12:13:08;96313.59;;;23.29;41.69
30682;BME280;17439;48.092;11.842;2023-09-30T12:15:35;96313.22;;;23.30;41.23
30682;BME280;17439;48.092;11.842;2023-09-30T12:18:02;96305.63;;;23.24;42.21
30682;BME280;17439;48.092;11.842;2023-09-30T12:20:32;96300.84;;;23.21;42.31
30682;BME280;17439;48.092;11.842;2023-09-30T12:22:58;96295.75;;;23.23;42.53
30682;BME280;17439;48.092;11.842;2023-09-30T12:25:25;96290.66;;;23.25;42.63
30682;BME280;17439;48.092;11.842;2023-09-30T12:27:52;96289.56;;;23.33;41.79
30682;BME280;17439;48.092;11.842;2023-09-30T12:30:19;96289.16;;;23.31;42.15
30682;BME280;17439;48.092;11.842;2023-09-30T12:32:46;96284.81;;;23.33;41.63
30682;BME280;17439;48.092;11.842;2023-09-30T12:35:12;96276.50;;;23.30;41.58
30682;BME280;17439;48.092;11.842;2023-09-30T12:37:39;96275.09;;;23.43;40.57
30682;BME280;17439;48.092;11.842;2023-09-30T12:40:06;96265.53;;;23.37;40.96
30682;BME280;17439;48.092;11.842;2023-09-30T12:42:33;96251.94;;;23.25;41.39
30682;BME280;17439;48.092;11.842;2023-09-30T12:45:01;96256.97;;;23.19;42.23
30682;BME280;17439;48.092;11.842;2023-09-30T12:47:27;96250.16;;;23.13;42.11
30682;BME280;17439;48.092;11.842;2023-09-30T12:49:54;96255.78;;;23.16;40.90
30682;BME280;17439;48.092;11.842;2023-09-30T12:52:21;96255.69;;;23.13;41.46
30682;BME280;17439;48.092;11.842;2023-09-30T12:54:48;96252.50;;;23.11;41.82
30682;BME280;17439;48.092;11.842;2023-09-30T12:57:14;96261.19;;;23.09;41.54
30682;BME280;17439;48.092;11.842;2023-09-30T12:59:41;96257.19;;;23.07;41.68
30682;BME280;17439;48.092;11.842;2023-09-30T13:02:08;96262.38;;;23.08;42.07
30682;BME280;17439;48.092;11.842;2023-09-30T13:04:34;96267.66;;;23.21;41.30
30682;BME280;17439;48.092;11.842;2023-09-30T13:07:01;96261.38;;;23.24;41.15
30682;BME280;17439;48.092;11.842;2023-09-30T13:09:28;96278.72;;;23.21;41.58
30682;BME280;17439;48.092;11.842;2023-09-30T13:11:55;96283.41;;;23.16;41.52